sensor_id;sensor_type;location;lat;lon;timestamp;P1;durP1;ratioP1;P2;durP2;ratioP2
41512;SDS011;27244;59.940;30.280;2023-03-24T00:01:40;5.93;;;3.25;;
41512;SDS011;27244;59.940;30.280;2023-03-24T00:04:11;6.80;;;2.83;;
41512;SDS011;27244;59.940;30.280;2023-03-24T00:06:39;5.82;;;3.17;;
41512;SDS011;27244;59.940;30.280;2023-03-24T00:09:09;5.90;;;3.00;;
41512;SDS011;27244;59.940;30.280;2023-03-24T00:11:36;6.20;;;3.13;;
41512;SDS011;27244;59.940;30.280;2023-03-24T00:14:04;5.35;;;2.55;;
41512;SDS011;27244;59.940;30.280;2023-03-24T00:16:36;7.43;;;3.05;;
41512;SDS011;27244;59.940;30.280;2023-03-24T00:19:07;7.57;;;3.40;;
41512;SDS011;27244;59.940;30.280;2023-03-24T00:21:36;6.68;;;3.22;;
41512;SDS011;27244;59.940;30.280;2023-03-24T00:24:06;7.15;;;2.72;;
41512;SDS011;27244;59.940;30.280;2023-03-24T00:26:35;9.35;;;3.35;;
41512;SDS011;27244;59.940;30.280;2023-03-24T00:29:03;6.57;;;2.95;;
41512;SDS011;27244;59.940;30.280;2023-03-24T00:31:31;8.30;;;2.83;;
41512;SDS011;27244;59.940;30.280;2023-03-24T00:34:04;10.95;;;3.33;;
41512;SDS011;27244;59.940;30.280;2023-03-24T00:36:33;5.97;;;2.50;;
41512;SDS011;27244;59.940;30.280;2023-03-24T00:39:02;5.95;;;2.75;;
41512;SDS011;27244;59.940;30.280;2023-03-24T00:41:33;4.75;;;2.40;;
41512;SDS011;27244;59.940;30.280;2023-03-24T00:44:00;7.07;;;3.00;;
41512;SDS011;27244;59.940;30.280;2023-03-24T00:46:32;5.53;;;2.60;;
41512;SDS011;27244;59.940;30.280;2023-03-24T00:49:00;7.60;;;2.70;;
41512;SDS011;27244;59.940;30.280;2023-03-24T00:51:31;4.07;;;2.15;;
41512;SDS011;27244;59.940;30.280;2023-03-24T00:53:59;5.78;;;2.63;;
41512;SDS011;27244;59.940;30.280;2023-03-24T00:56:28;4.88;;;2.40;;
41512;SDS011;27244;59.940;30.280;2023-03-24T00:58:57;5.35;;;2.63;;
41512;SDS011;27244;59.940;30.280;2023-03-24T01:01:27;6.70;;;2.35;;
41512;SDS011;27244;59.940;30.280;2023-03-24T01:03:57;7.05;;;3.03;;
41512;SDS011;27244;59.940;30.280;2023-03-24T01:06:25;5.65;;;2.50;;
41512;SDS011;27244;59.940;30.280;2023-03-24T01:08:52;5.40;;;2.50;;
41512;SDS011;27244;59.940;30.280;2023-03-24T01:11:20;6.93;;;2.95;;
41512;SDS011;27244;59.940;30.280;2023-03-24T01:13:50;6.20;;;2.50;;
41512;SDS011;27244;59.940;30.280;2023-03-24T01:16:18;5.68;;;2.50;;
41512;SDS011;27244;59.940;30.280;2023-03-24T01:18:49;6.47;;;2.70;;
41512;SDS011;27244;59.940;30.280;2023-03-24T01:21:17;4.40;;;2.40;;
41512;SDS011;27244;59.940;30.280;2023-03-24T01:23:44;5.93;;;2.63;;
41512;SDS011;27244;59.940;30.280;2023-03-24T01:26:11;6.13;;;2.40;;
41512;SDS011;27244;59.940;30.280;2023-03-24T01:28:39;6.22;;;2.50;;
41512;SDS011;27244;59.940;30.280;2023-03-24T01:31:09;3.85;;;2.45;;
41512;SDS011;27244;59.940;30.280;2023-03-24T01:33:37;5.60;;;2.95;;
41512;SDS011;27244;59.940;30.280;2023-03-24T01:36:05;6.20;;;2.85;;
41512;SDS011;27244;59.940;30.280;2023-03-24T01:38:33;6.55;;;3.30;;
41512;SDS011;27244;59.940;30.280;2023-03-24T01:41:00;4.53;;;2.70;;
41512;SDS011;27244;59.940;30.280;2023-03-24T01:43:28;7.60;;;2.95;;
41512;SDS011;27244;59.940;30.280;2023-03-24T01:45:59;4.22;;;2.92;;
41512;SDS011;27244;59.940;30.280;2023-03-24T01:48:34;5.93;;;3.10;;
41512;SDS011;27244;59.940;30.280;2023-03-24T01:51:06;4.05;;;2.38;;
41512;SDS011;27244;59.940;30.280;2023-03-24T01:53:38;6.45;;;3.15;;
41512;SDS011;27244;59.940;30.280;2023-03-24T01:56:08;4.97;;;2.65;;
41512;SDS011;27244;59.940;30.280;2023-03-24T02:01:29;7.57;;;3.00;;
41512;SDS011;27244;59.940;30.280;2023-03-24T02:04:38;6.00;;;3.35;;
41512;SDS011;27244;59.940;30.280;2023-03-24T02:07:09;5.15;;;2.63;;
41512;SDS011;27244;59.940;30.280;2023-03-24T02:09:40;5.57;;;2.88;;
41512;SDS011;27244;59.940;30.280;2023-03-24T02:12:07;6.90;;;2.63;;
41512;SDS011;27244;59.940;30.280;2023-03-24T02:14:34;5.53;;;2.45;;
41512;SDS011;27244;59.940;30.280;2023-03-24T02:17:08;6.22;;;2.78;;
41512;SDS011;27244;59.940;30.280;2023-03-24T02:23:00;5.78;;;3.05;;
41512;SDS011;27244;59.940;30.280;2023-03-24T02:29:00;6.03;;;3.10;;
41512;SDS011;27244;59.940;30.280;2023-03-24T02:31:47;4.53;;;2.92;;
41512;SDS011;27244;59.940;30.280;2023-03-24T02:34:41;8.80;;;3.15;;
41512;SDS011;27244;59.940;30.280;2023-03-24T02:37:58;5.20;;;2.92;;
41512;SDS011;27244;59.940;30.280;2023-03-24T02:40:55;5.80;;;2.78;;
41512;SDS011;27244;59.940;30.280;2023-03-24T02:43:31;7.90;;;3.60;;
41512;SDS011;27244;59.940;30.280;2023-03-24T02:46:10;5.85;;;2.88;;
41512;SDS011;27244;59.940;30.280;2023-03-24T02:48:54;5.32;;;3.17;;
41512;SDS011;27244;59.940;30.280;2023-03-24T02:51:31;6.75;;;2.90;;
41512;SDS011;27244;59.940;30.280;2023-03-24T02:54:06;5.30;;;3.30;;
41512;SDS011;27244;59.940;30.280;2023-03-24T02:56:39;6.25;;;3.00;;
41512;SDS011;27244;59.940;30.280;2023-03-24T02:59:30;3.85;;;2.55;;
41512;SDS011;27244;59.940;30.280;2023-03-24T03:02:05;5.13;;;3.33;;
41512;SDS011;27244;59.940;30.280;2023-03-24T03:04:38;6.35;;;3.05;;
41512;SDS011;27244;59.940;30.280;2023-03-24T03:07:11;6.10;;;3.03;;
41512;SDS011;27244;59.940;30.280;2023-03-24T03:09:42;5.47;;;3.10;;
41512;SDS011;27244;59.940;30.280;2023-03-24T03:12:15;6.13;;;3.60;;
41512;SDS011;27244;59.940;30.280;2023-03-24T03:17:15;7.97;;;4.60;;
41512;SDS011;27244;59.940;30.280;2023-03-24T03:19:46;8.02;;;4.65;;
41512;SDS011;27244;59.940;30.280;2023-03-24T03:22:19;7.90;;;4.95;;
41512;SDS011;27244;59.940;30.280;2023-03-24T03:24:50;8.50;;;4.65;;
41512;SDS011;27244;59.940;30.280;2023-03-24T03:27:22;10.55;;;5.03;;
41512;SDS011;27244;59.940;30.280;2023-03-24T03:29:53;9.18;;;4.68;;
41512;SDS011;27244;59.940;30.280;2023-03-24T03:32:25;6.85;;;4.43;;
41512;SDS011;27244;59.940;30.280;2023-03-24T03:34:55;9.73;;;5.32;;
41512;SDS011;27244;59.940;30.280;2023-03-24T03:37:29;7.13;;;4.88;;
41512;SDS011;27244;59.940;30.280;2023-03-24T03:40:03;7.75;;;4.70;;
41512;SDS011;27244;59.940;30.280;2023-03-24T03:42:40;9.18;;;5.50;;
41512;SDS011;27244;59.940;30.280;2023-03-24T03:45:08;6.97;;;4.93;;
41512;SDS011;27244;59.940;30.280;2023-03-24T03:47:37;8.75;;;6.07;;
41512;SDS011;27244;59.940;30.280;2023-03-24T03:50:05;9.00;;;6.38;;
41512;SDS011;27244;59.940;30.280;2023-03-24T03:52:34;13.75;;;7.40;;
41512;SDS011;27244;59.940;30.280;2023-03-24T03:55:02;11.45;;;7.28;;
41512;SDS011;27244;59.940;30.280;2023-03-24T03:57:30;11.40;;;8.27;;
41512;SDS011;27244;59.940;30.280;2023-03-24T04:00:20;11.65;;;7.63;;
41512;SDS011;27244;59.940;30.280;2023-03-24T04:03:22;12.27;;;8.35;;
41512;SDS011;27244;59.940;30.280;2023-03-24T04:05:59;11.13;;;7.82;;
41512;SDS011;27244;59.940;30.280;2023-03-24T04:08:33;15.02;;;8.00;;
41512;SDS011;27244;59.940;30.280;2023-03-24T04:11:29;10.75;;;7.38;;
41512;SDS011;27244;59.940;30.280;2023-03-24T04:14:38;8.98;;;6.53;;
41512;SDS011;27244;59.940;30.280;2023-03-24T04:18:01;10.77;;;7.30;;
41512;SDS011;27244;59.940;30.280;2023-03-24T04:20:55;10.50;;;7.78;;
41512;SDS011;27244;59.940;30.280;2023-03-24T04:23:36;12.27;;;7.75;;
41512;SDS011;27244;59.940;30.280;2023-03-24T04:26:15;8.95;;;6.30;;
41512;SDS011;27244;59.940;30.280;2023-03-24T04:28:54;10.88;;;6.93;;
41512;SDS011;27244;59.940;30.280;2023-03-24T04:31:30;10.15;;;6.38;;
41512;SDS011;27244;59.940;30.280;2023-03-24T04:34:03;11.75;;;6.65;;
41512;SDS011;27244;59.940;30.280;2023-03-24T04:36:40;9.18;;;6.80;;
41512;SDS011;27244;59.940;30.280;2023-03-24T04:39:28;9.70;;;5.55;;
41512;SDS011;27244;59.940;30.280;2023-03-24T04:42:03;7.82;;;5.40;;
41512;SDS011;27244;59.940;30.280;2023-03-24T04:44:34;7.78;;;5.53;;
41512;SDS011;27244;59.940;30.280;2023-03-24T04:47:17;8.27;;;5.53;;
41512;SDS011;27244;59.940;30.280;2023-03-24T04:50:01;7.55;;;5.60;;
41512;SDS011;27244;59.940;30.280;2023-03-24T04:52:32;8.80;;;5.75;;
41512;SDS011;27244;59.940;30.280;2023-03-24T04:55:01;7.22;;;5.43;;
41512;SDS011;27244;59.940;30.280;2023-03-24T04:57:30;6.68;;;4.75;;
41512;SDS011;27244;59.940;30.280;2023-03-24T05:00:04;7.50;;;5.32;;
41512;SDS011;27244;59.940;30.280;2023-03-24T05:02:33;7.78;;;5.38;;
41512;SDS011;27244;59.940;30.280;2023-03-24T05:05:09;7.45;;;5.00;;
41512;SDS011;27244;59.940;30.280;2023-03-24T05:07:41;8.68;;;5.20;;
41512;SDS011;27244;59.940;30.280;2023-03-24T05:10:12;7.38;;;4.88;;
41512;SDS011;27244;59.940;30.280;2023-03-24T05:12:44;9.40;;;4.70;;
41512;SDS011;27244;59.940;30.280;2023-03-24T05:15:32;8.40;;;3.90;;
41512;SDS011;27244;59.940;30.280;2023-03-24T05:18:18;6.18;;;4.50;;
41512;SDS011;27244;59.940;30.280;2023-03-24T05:20:47;6.30;;;4.10;;
41512;SDS011;27244;59.940;30.280;2023-03-24T05:23:18;13.18;;;4.25;;
41512;SDS011;27244;59.940;30.280;2023-03-24T05:25:49;5.63;;;3.67;;
41512;SDS011;27244;59.940;30.280;2023-03-24T05:28:21;7.97;;;3.92;;
41512;SDS011;27244;59.940;30.280;2023-03-24T05:30:51;5.53;;;3.70;;
41512;SDS011;27244;59.940;30.280;2023-03-24T05:33:50;6.18;;;3.50;;
41512;SDS011;27244;59.940;30.280;2023-03-24T05:36:20;9.73;;;3.83;;
41512;SDS011;27244;59.940;30.280;2023-03-24T05:38:55;5.03;;;3.65;;
41512;SDS011;27244;59.940;30.280;2023-03-24T05:41:30;4.80;;;3.17;;
41512;SDS011;27244;59.940;30.280;2023-03-24T05:43:57;5.72;;;3.47;;
41512;SDS011;27244;59.940;30.280;2023-03-24T05:46:25;5.07;;;3.10;;
41512;SDS011;27244;59.940;30.280;2023-03-24T05:48:53;5.57;;;3.65;;
41512;SDS011;27244;59.940;30.280;2023-03-24T05:51:23;5.32;;;3.40;;
41512;SDS011;27244;59.940;30.280;2023-03-24T05:53:59;4.78;;;3.05;;
41512;SDS011;27244;59.940;30.280;2023-03-24T05:56:38;4.18;;;3.50;;
41512;SDS011;27244;59.940;30.280;2023-03-24T05:59:17;4.60;;;3.15;;
41512;SDS011;27244;59.940;30.280;2023-03-24T06:02:04;6.28;;;3.30;;
41512;SDS011;27244;59.940;30.280;2023-03-24T06:04:50;5.88;;;3.50;;
41512;SDS011;27244;59.940;30.280;2023-03-24T06:07:23;5.85;;;3.10;;
41512;SDS011;27244;59.940;30.280;2023-03-24T06:09:56;3.88;;;2.83;;
41512;SDS011;27244;59.940;30.280;2023-03-24T06:12:31;4.20;;;3.03;;
41512;SDS011;27244;59.940;30.280;2023-03-24T06:15:02;3.85;;;2.80;;
41512;SDS011;27244;59.940;30.280;2023-03-24T06:17:30;5.47;;;3.08;;
41512;SDS011;27244;59.940;30.280;2023-03-24T06:20:07;5.18;;;3.22;;
41512;SDS011;27244;59.940;30.280;2023-03-24T06:22:41;9.60;;;3.35;;
41512;SDS011;27244;59.940;30.280;2023-03-24T06:25:13;4.22;;;3.38;;
41512;SDS011;27244;59.940;30.280;2023-03-24T06:27:52;3.78;;;2.78;;
41512;SDS011;27244;59.940;30.280;2023-03-24T06:30:22;4.57;;;2.67;;
41512;SDS011;27244;59.940;30.280;2023-03-24T06:32:55;4.05;;;2.85;;
41512;SDS011;27244;59.940;30.280;2023-03-24T06:35:22;5.28;;;3.17;;
41512;SDS011;27244;59.940;30.280;2023-03-24T06:37:57;4.22;;;3.30;;
41512;SDS011;27244;59.940;30.280;2023-03-24T06:40:24;3.53;;;2.78;;
41512;SDS011;27244;59.940;30.280;2023-03-24T06:42:55;4.72;;;2.85;;
41512;SDS011;27244;59.940;30.280;2023-03-24T06:45:22;6.20;;;2.75;;
41512;SDS011;27244;59.940;30.280;2023-03-24T06:47:50;4.35;;;3.08;;
41512;SDS011;27244;59.940;30.280;2023-03-24T06:50:20;4.20;;;2.80;;
41512;SDS011;27244;59.940;30.280;2023-03-24T06:52:51;4.55;;;2.97;;
41512;SDS011;27244;59.940;30.280;2023-03-24T06:55:20;3.20;;;2.65;;
41512;SDS011;27244;59.940;30.280;2023-03-24T06:57:50;3.80;;;2.53;;
41512;SDS011;27244;59.940;30.280;2023-03-24T07:00:37;4.22;;;3.00;;
41512;SDS011;27244;59.940;30.280;2023-03-24T07:03:24;3.58;;;2.67;;
41512;SDS011;27244;59.940;30.280;2023-03-24T07:06:09;3.08;;;2.40;;
41512;SDS011;27244;59.940;30.280;2023-03-24T07:08:37;4.68;;;2.67;;
41512;SDS011;27244;59.940;30.280;2023-03-24T07:11:06;3.50;;;2.50;;
41512;SDS011;27244;59.940;30.280;2023-03-24T07:13:39;3.03;;;2.38;;
41512;SDS011;27244;59.940;30.280;2023-03-24T07:16:07;3.03;;;2.25;;
41512;SDS011;27244;59.940;30.280;2023-03-24T07:18:36;3.25;;;2.40;;
41512;SDS011;27244;59.940;30.280;2023-03-24T07:21:05;4.05;;;2.63;;
41512;SDS011;27244;59.940;30.280;2023-03-24T07:23:34;3.58;;;2.67;;
41512;SDS011;27244;59.940;30.280;2023-03-24T07:26:23;3.70;;;2.70;;
41512;SDS011;27244;59.940;30.280;2023-03-24T07:28:57;6.05;;;2.55;;
41512;SDS011;27244;59.940;30.280;2023-03-24T07:31:54;3.13;;;2.55;;
41512;SDS011;27244;59.940;30.280;2023-03-24T07:34:23;3.30;;;2.90;;
41512;SDS011;27244;59.940;30.280;2023-03-24T07:36:51;3.30;;;2.53;;
41512;SDS011;27244;59.940;30.280;2023-03-24T07:39:19;4.25;;;2.97;;
41512;SDS011;27244;59.940;30.280;2023-03-24T07:41:47;4.90;;;3.10;;
41512;SDS011;27244;59.940;30.280;2023-03-24T07:44:25;4.38;;;2.90;;
41512;SDS011;27244;59.940;30.280;2023-03-24T07:46:52;4.00;;;2.95;;
41512;SDS011;27244;59.940;30.280;2023-03-24T07:49:20;3.22;;;2.70;;
41512;SDS011;27244;59.940;30.280;2023-03-24T07:51:57;3.00;;;2.70;;
41512;SDS011;27244;59.940;30.280;2023-03-24T07:54:31;3.65;;;2.90;;
41512;SDS011;27244;59.940;30.280;2023-03-24T07:57:00;3.92;;;3.42;;
41512;SDS011;27244;59.940;30.280;2023-03-24T07:59:27;4.85;;;3.45;;
41512;SDS011;27244;59.940;30.280;2023-03-24T08:02:10;4.85;;;3.80;;
41512;SDS011;27244;59.940;30.280;2023-03-24T08:04:50;4.55;;;4.03;;
41512;SDS011;27244;59.940;30.280;2023-03-24T08:07:45;5.00;;;4.00;;
41512;SDS011;27244;59.940;30.280;2023-03-24T08:10:17;5.63;;;4.47;;
41512;SDS011;27244;59.940;30.280;2023-03-24T08:12:48;4.95;;;3.75;;
41512;SDS011;27244;59.940;30.280;2023-03-24T08:15:19;4.78;;;4.25;;
41512;SDS011;27244;59.940;30.280;2023-03-24T08:17:47;5.10;;;4.47;;
41512;SDS011;27244;59.940;30.280;2023-03-24T08:20:14;5.13;;;4.15;;
41512;SDS011;27244;59.940;30.280;2023-03-24T08:22:43;5.47;;;4.38;;
41512;SDS011;27244;59.940;30.280;2023-03-24T08:25:14;5.55;;;4.80;;
41512;SDS011;27244;59.940;30.280;2023-03-24T08:27:44;6.43;;;4.68;;
41512;SDS011;27244;59.940;30.280;2023-03-24T08:30:14;6.30;;;5.20;;
41512;SDS011;27244;59.940;30.280;2023-03-24T08:32:43;5.30;;;4.78;;
41512;SDS011;27244;59.940;30.280;2023-03-24T08:35:11;6.47;;;5.63;;
41512;SDS011;27244;59.940;30.280;2023-03-24T08:37:41;6.10;;;5.50;;
41512;SDS011;27244;59.940;30.280;2023-03-24T08:40:10;7.18;;;5.90;;
41512;SDS011;27244;59.940;30.280;2023-03-24T08:42:41;6.65;;;5.80;;
41512;SDS011;27244;59.940;30.280;2023-03-24T08:45:09;7.22;;;6.30;;
41512;SDS011;27244;59.940;30.280;2023-03-24T08:47:39;7.85;;;6.25;;
41512;SDS011;27244;59.940;30.280;2023-03-24T08:50:07;7.38;;;6.65;;
41512;SDS011;27244;59.940;30.280;2023-03-24T08:52:34;6.65;;;5.90;;
41512;SDS011;27244;59.940;30.280;2023-03-24T08:55:01;7.40;;;6.00;;
41512;SDS011;27244;59.940;30.280;2023-03-24T08:57:28;9.27;;;6.35;;
41512;SDS011;27244;59.940;30.280;2023-03-24T08:59:56;10.30;;;6.88;;
41512;SDS011;27244;59.940;30.280;2023-03-24T09:02:23;6.90;;;6.20;;
41512;SDS011;27244;59.940;30.280;2023-03-24T09:04:51;8.43;;;6.60;;
41512;SDS011;27244;59.940;30.280;2023-03-24T09:07:20;7.25;;;6.53;;
41512;SDS011;27244;59.940;30.280;2023-03-24T09:09:47;7.85;;;7.03;;
41512;SDS011;27244;59.940;30.280;2023-03-24T09:12:14;8.07;;;7.00;;
41512;SDS011;27244;59.940;30.280;2023-03-24T09:14:46;7.78;;;6.53;;
41512;SDS011;27244;59.940;30.280;2023-03-24T09:17:14;10.13;;;7.00;;
41512;SDS011;27244;59.940;30.280;2023-03-24T09:19:41;8.45;;;7.03;;
41512;SDS011;27244;59.940;30.280;2023-03-24T09:22:10;7.28;;;6.20;;
41512;SDS011;27244;59.940;30.280;2023-03-24T09:24:37;8.35;;;6.65;;
41512;SDS011;27244;59.940;30.280;2023-03-24T09:27:04;7.35;;;6.63;;
41512;SDS011;27244;59.940;30.280;2023-03-24T09:29:31;7.05;;;6.20;;
41512;SDS011;27244;59.940;30.280;2023-03-24T09:31:58;7.03;;;6.32;;
41512;SDS011;27244;59.940;30.280;2023-03-24T09:34:25;8.07;;;6.95;;
41512;SDS011;27244;59.940;30.280;2023-03-24T09:36:52;7.20;;;6.15;;
41512;SDS011;27244;59.940;30.280;2023-03-24T09:39:21;7.80;;;6.88;;
41512;SDS011;27244;59.940;30.280;2023-03-24T09:41:48;7.50;;;6.70;;
41512;SDS011;27244;59.940;30.280;2023-03-24T09:44:20;7.25;;;6.40;;
41512;SDS011;27244;59.940;30.280;2023-03-24T09:46:51;7.38;;;6.53;;
41512;SDS011;27244;59.940;30.280;2023-03-24T09:49:23;7.90;;;7.10;;
41512;SDS011;27244;59.940;30.280;2023-03-24T09:51:54;9.40;;;6.60;;
41512;SDS011;27244;59.940;30.280;2023-03-24T09:54:29;10.18;;;7.25;;
41512;SDS011;27244;59.940;30.280;2023-03-24T09:57:01;7.95;;;6.40;;
41512;SDS011;27244;59.940;30.280;2023-03-24T09:59:31;9.18;;;7.32;;
41512;SDS011;27244;59.940;30.280;2023-03-24T10:02:01;7.32;;;6.63;;
41512;SDS011;27244;59.940;30.280;2023-03-24T10:04:39;7.50;;;6.70;;
41512;SDS011;27244;59.940;30.280;2023-03-24T10:07:07;8.90;;;7.35;;
41512;SDS011;27244;59.940;30.280;2023-03-24T10:09:42;8.45;;;7.13;;
41512;SDS011;27244;59.940;30.280;2023-03-24T10:12:16;7.93;;;6.93;;
41512;SDS011;27244;59.940;30.280;2023-03-24T10:14:53;8.70;;;7.80;;
41512;SDS011;27244;59.940;30.280;2023-03-24T10:17:28;8.25;;;6.95;;
41512;SDS011;27244;59.940;30.280;2023-03-24T10:20:09;8.38;;;7.50;;
41512;SDS011;27244;59.940;30.280;2023-03-24T10:22:43;9.13;;;7.82;;
41512;SDS011;27244;59.940;30.280;2023-03-24T10:25:22;8.10;;;7.30;;
41512;SDS011;27244;59.940;30.280;2023-03-24T10:27:53;10.70;;;7.68;;
41512;SDS011;27244;59.940;30.280;2023-03-24T10:30:24;8.40;;;7.30;;
41512;SDS011;27244;59.940;30.280;2023-03-24T10:32:54;10.10;;;8.07;;
41512;SDS011;27244;59.940;30.280;2023-03-24T10:35:25;10.48;;;8.05;;
41512;SDS011;27244;59.940;30.280;2023-03-24T10:37:55;9.50;;;8.25;;
41512;SDS011;27244;59.940;30.280;2023-03-24T10:40:28;9.40;;;6.83;;
41512;SDS011;27244;59.940;30.280;2023-03-24T10:45:25;9.75;;;7.65;;
41512;SDS011;27244;59.940;30.280;2023-03-24T10:47:56;9.70;;;7.63;;
41512;SDS011;27244;59.940;30.280;2023-03-24T10:50:26;8.07;;;7.13;;
41512;SDS011;27244;59.940;30.280;2023-03-24T10:52:55;11.00;;;7.35;;
41512;SDS011;27244;59.940;30.280;2023-03-24T10:55:23;9.85;;;8.02;;
41512;SDS011;27244;59.940;30.280;2023-03-24T10:57:57;12.23;;;8.15;;
41512;SDS011;27244;59.940;30.280;2023-03-24T11:00:26;9.88;;;7.53;;
41512;SDS011;27244;59.940;30.280;2023-03-24T11:02:56;8.32;;;6.97;;
41512;SDS011;27244;59.940;30.280;2023-03-24T11:05:26;9.93;;;7.28;;
41512;SDS011;27244;59.940;30.280;2023-03-24T11:08:11;8.23;;;7.32;;
41512;SDS011;27244;59.940;30.280;2023-03-24T11:10:52;9.13;;;7.78;;
41512;SDS011;27244;59.940;30.280;2023-03-24T11:13:26;9.45;;;7.13;;
41512;SDS011;27244;59.940;30.280;2023-03-24T11:16:09;8.77;;;7.38;;
41512;SDS011;27244;59.940;30.280;2023-03-24T11:18:55;8.73;;;7.32;;
41512;SDS011;27244;59.940;30.280;2023-03-24T11:21:26;9.02;;;7.10;;
41512;SDS011;27244;59.940;30.280;2023-03-24T11:24:02;9.13;;;7.22;;
41512;SDS011;27244;59.940;30.280;2023-03-24T11:26:37;9.55;;;7.65;;
41512;SDS011;27244;59.940;30.280;2023-03-24T11:29:06;9.48;;;7.85;;
41512;SDS011;27244;59.940;30.280;2023-03-24T11:31:41;9.88;;;7.35;;
41512;SDS011;27244;59.940;30.280;2023-03-24T11:34:12;9.30;;;7.53;;
41512;SDS011;27244;59.940;30.280;2023-03-24T11:36:48;11.38;;;7.80;;
41512;SDS011;27244;59.940;30.280;2023-03-24T11:39:20;8.98;;;8.02;;
41512;SDS011;27244;59.940;30.280;2023-03-24T11:41:58;8.77;;;7.78;;
41512;SDS011;27244;59.940;30.280;2023-03-24T11:44:31;8.75;;;7.85;;
41512;SDS011;27244;59.940;30.280;2023-03-24T11:47:17;9.35;;;8.27;;
41512;SDS011;27244;59.940;30.280;2023-03-24T11:49:50;10.02;;;8.30;;
41512;SDS011;27244;59.940;30.280;2023-03-24T11:52:33;10.05;;;8.55;;
41512;SDS011;27244;59.940;30.280;2023-03-24T11:55:12;10.95;;;8.70;;
41512;SDS011;27244;59.940;30.280;2023-03-24T11:57:50;10.25;;;8.68;;
41512;SDS011;27244;59.940;30.280;2023-03-24T12:00:23;11.30;;;8.60;;
41512;SDS011;27244;59.940;30.280;2023-03-24T12:03:00;8.98;;;8.07;;
41512;SDS011;27244;59.940;30.280;2023-03-24T12:05:49;9.98;;;8.15;;
41512;SDS011;27244;59.940;30.280;2023-03-24T12:08:38;9.50;;;8.50;;
41512;SDS011;27244;59.940;30.280;2023-03-24T12:11:18;10.40;;;8.20;;
41512;SDS011;27244;59.940;30.280;2023-03-24T12:14:02;8.95;;;8.07;;
41512;SDS011;27244;59.940;30.280;2023-03-24T12:16:36;9.40;;;8.40;;
41512;SDS011;27244;59.940;30.280;2023-03-24T12:22:15;9.30;;;8.25;;
41512;SDS011;27244;59.940;30.280;2023-03-24T12:25:03;8.77;;;7.88;;
41512;SDS011;27244;59.940;30.280;2023-03-24T12:27:45;9.77;;;8.75;;
41512;SDS011;27244;59.940;30.280;2023-03-24T12:30:23;8.23;;;7.13;;
41512;SDS011;27244;59.940;30.280;2023-03-24T12:32:59;9.55;;;8.02;;
41512;SDS011;27244;59.940;30.280;2023-03-24T12:35:42;9.00;;;8.10;;
41512;SDS011;27244;59.940;30.280;2023-03-24T12:38:24;8.25;;;7.40;;
41512;SDS011;27244;59.940;30.280;2023-03-24T12:41:11;9.30;;;7.95;;
41512;SDS011;27244;59.940;30.280;2023-03-24T12:43:50;8.57;;;7.68;;
41512;SDS011;27244;59.940;30.280;2023-03-24T12:46:43;9.45;;;7.45;;
41512;SDS011;27244;59.940;30.280;2023-03-24T12:49:40;8.07;;;7.30;;
41512;SDS011;27244;59.940;30.280;2023-03-24T12:52:47;8.18;;;7.32;;
41512;SDS011;27244;59.940;30.280;2023-03-24T12:55:24;8.07;;;7.28;;
41512;SDS011;27244;59.940;30.280;2023-03-24T12:57:59;7.72;;;6.43;;
41512;SDS011;27244;59.940;30.280;2023-03-24T13:00:32;7.82;;;6.50;;
41512;SDS011;27244;59.940;30.280;2023-03-24T13:03:05;6.90;;;6.13;;
41512;SDS011;27244;59.940;30.280;2023-03-24T13:05:41;7.88;;;7.07;;
41512;SDS011;27244;59.940;30.280;2023-03-24T13:08:12;7.95;;;6.35;;
41512;SDS011;27244;59.940;30.280;2023-03-24T13:10:41;7.35;;;6.65;;
41512;SDS011;27244;59.940;30.280;2023-03-24T13:13:14;7.22;;;6.53;;
41512;SDS011;27244;59.940;30.280;2023-03-24T13:15:44;7.68;;;6.88;;
41512;SDS011;27244;59.940;30.280;2023-03-24T13:18:19;8.18;;;6.40;;
41512;SDS011;27244;59.940;30.280;2023-03-24T13:20:54;7.85;;;6.57;;
41512;SDS011;27244;59.940;30.280;2023-03-24T13:23:31;7.78;;;7.00;;
41512;SDS011;27244;59.940;30.280;2023-03-24T13:26:18;7.63;;;6.55;;
41512;SDS011;27244;59.940;30.280;2023-03-24T13:28:53;7.10;;;6.38;;
41512;SDS011;27244;59.940;30.280;2023-03-24T13:31:27;6.93;;;6.22;;
41512;SDS011;27244;59.940;30.280;2023-03-24T13:34:03;7.20;;;6.50;;
41512;SDS011;27244;59.940;30.280;2023-03-24T13:36:47;6.88;;;6.18;;
41512;SDS011;27244;59.940;30.280;2023-03-24T13:39:20;8.50;;;7.40;;
41512;SDS011;27244;59.940;30.280;2023-03-24T13:41:50;7.43;;;6.55;;
41512;SDS011;27244;59.940;30.280;2023-03-24T13:44:19;7.72;;;6.85;;
41512;SDS011;27244;59.940;30.280;2023-03-24T13:46:58;7.88;;;6.80;;
41512;SDS011;27244;59.940;30.280;2023-03-24T13:49:31;7.57;;;6.75;;
41512;SDS011;27244;59.940;30.280;2023-03-24T13:52:01;7.40;;;6.38;;
41512;SDS011;27244;59.940;30.280;2023-03-24T13:54:30;6.78;;;6.07;;
41512;SDS011;27244;59.940;30.280;2023-03-24T13:57:03;7.68;;;6.75;;
41512;SDS011;27244;59.940;30.280;2023-03-24T13:59:32;7.38;;;6.15;;
41512;SDS011;27244;59.940;30.280;2023-03-24T14:05:10;7.55;;;6.85;;
41512;SDS011;27244;59.940;30.280;2023-03-24T14:07:42;7.75;;;6.63;;
41512;SDS011;27244;59.940;30.280;2023-03-24T14:10:27;7.65;;;6.85;;
41512;SDS011;27244;59.940;30.280;2023-03-24T14:13:02;7.88;;;6.95;;
41512;SDS011;27244;59.940;30.280;2023-03-24T14:15:33;10.00;;;7.05;;
41512;SDS011;27244;59.940;30.280;2023-03-24T14:21:09;9.38;;;6.75;;
41512;SDS011;27244;59.940;30.280;2023-03-24T14:23:37;7.68;;;6.50;;
41512;SDS011;27244;59.940;30.280;2023-03-24T14:26:07;7.63;;;6.53;;
41512;SDS011;27244;59.940;30.280;2023-03-24T14:28:39;7.63;;;6.78;;
41512;SDS011;27244;59.940;30.280;2023-03-24T14:31:08;7.43;;;6.72;;
41512;SDS011;27244;59.940;30.280;2023-03-24T14:33:37;7.40;;;6.53;;
41512;SDS011;27244;59.940;30.280;2023-03-24T14:36:06;7.38;;;6.68;;
41512;SDS011;27244;59.940;30.280;2023-03-24T14:38:38;8.48;;;6.95;;
41512;SDS011;27244;59.940;30.280;2023-03-24T14:41:11;6.90;;;6.05;;
41512;SDS011;27244;59.940;30.280;2023-03-24T14:43:57;7.75;;;6.60;;
41512;SDS011;27244;59.940;30.280;2023-03-24T14:46:37;6.35;;;5.75;;
41512;SDS011;27244;59.940;30.280;2023-03-24T14:51:41;7.35;;;6.20;;
41512;SDS011;27244;59.940;30.280;2023-03-24T14:56:42;7.03;;;5.93;;
41512;SDS011;27244;59.940;30.280;2023-03-24T14:59:16;7.05;;;6.13;;
41512;SDS011;27244;59.940;30.280;2023-03-24T15:01:53;7.40;;;6.38;;
41512;SDS011;27244;59.940;30.280;2023-03-24T15:04:26;6.88;;;5.78;;
41512;SDS011;27244;59.940;30.280;2023-03-24T15:06:53;6.85;;;5.78;;
41512;SDS011;27244;59.940;30.280;2023-03-24T15:09:21;6.68;;;5.80;;
41512;SDS011;27244;59.940;30.280;2023-03-24T15:11:48;6.20;;;5.60;;
41512;SDS011;27244;59.940;30.280;2023-03-24T15:14:20;6.43;;;5.53;;
41512;SDS011;27244;59.940;30.280;2023-03-24T15:16:56;6.25;;;5.65;;
41512;SDS011;27244;59.940;30.280;2023-03-24T15:19:24;6.70;;;5.78;;
41512;SDS011;27244;59.940;30.280;2023-03-24T15:21:57;5.90;;;5.30;;
41512;SDS011;27244;59.940;30.280;2023-03-24T15:24:29;5.90;;;5.30;;
41512;SDS011;27244;59.940;30.280;2023-03-24T15:29:44;5.75;;;5.15;;
41512;SDS011;27244;59.940;30.280;2023-03-24T15:32:14;7.10;;;5.50;;
41512;SDS011;27244;59.940;30.280;2023-03-24T15:34:46;5.68;;;5.13;;
41512;SDS011;27244;59.940;30.280;2023-03-24T15:37:19;5.82;;;5.13;;
41512;SDS011;27244;59.940;30.280;2023-03-24T15:39:50;5.65;;;5.00;;
41512;SDS011;27244;59.940;30.280;2023-03-24T15:42:19;5.85;;;5.30;;
41512;SDS011;27244;59.940;30.280;2023-03-24T15:44:48;5.85;;;5.25;;